Terminal Aerodrome Forecast
Issued by NWS

Home | Current Version | Previous Version | Text Only | Print | Product List | Glossary On
Versions: 1 2 3 4 5 6 7 8 9 10 11 12 13 14 15 16 17
000
FTUS43 KFGF 301100
TAFTVF
TAF
KTVF 301139Z 3012/0112 11011KT P6SM SKC
     FM301300 12010KT P6SM OVC008
     FM301700 13013G18KT P6SM BKN200
     FM302300 13015G22KT P6SM VCSH BKN030
      AMD LTD TO CLD VIS AND WIND=

USA.gov is the U.S. government's official web portal to all federal, state and local government web resources and services.